createdAt,value
2023-06-02T00:02:01.182Z,7.90
2023-06-02T00:04:28.762Z,7.90
2023-06-02T00:07:04.497Z,7.90
2023-06-02T00:09:37.424Z,7.90
2023-06-02T00:12:04.524Z,7.90
2023-06-02T00:14:35.172Z,7.90
2023-06-02T00:17:02.343Z,7.90
2023-06-02T00:19:32.062Z,7.90
2023-06-02T00:21:59.289Z,8.20
2023-06-02T00:24:26.201Z,9.20
2023-06-02T00:26:53.063Z,7.90
2023-06-02T00:29:20.138Z,7.90
2023-06-02T00:31:47.020Z,7.90
2023-06-02T00:34:13.843Z,7.90
2023-06-02T00:36:40.721Z,8.20
2023-06-02T00:39:08.154Z,7.80
2023-06-02T00:41:35.510Z,7.80
2023-06-02T00:44:02.594Z,7.80
2023-06-02T00:46:29.501Z,7.80
2023-06-02T00:48:56.405Z,7.80
2023-06-02T00:51:24.289Z,7.80
2023-06-02T00:53:51.647Z,7.90
2023-06-02T00:56:18.633Z,8.00
2023-06-02T00:58:46.545Z,7.90
2023-06-02T01:01:13.732Z,7.80
2023-06-02T01:03:46.250Z,7.90
2023-06-02T01:06:16.586Z,9.60
2023-06-02T01:08:44.596Z,9.10
2023-06-02T01:11:11.908Z,7.70
2023-06-02T01:13:38.915Z,8.70
2023-06-02T01:16:06.699Z,7.60
2023-06-02T01:18:36.564Z,7.60
2023-06-02T01:21:06.811Z,7.60
2023-06-02T01:23:36.889Z,7.60
2023-06-02T01:26:10.565Z,7.60
2023-06-02T01:28:37.871Z,7.60
2023-06-02T01:31:19.019Z,7.50
2023-06-02T01:34:07.618Z,9.10
2023-06-02T01:36:37.410Z,7.50
2023-06-02T01:39:06.578Z,7.50
2023-06-02T01:41:35.841Z,7.50
2023-06-02T01:44:03.723Z,7.90
2023-06-02T01:46:30.736Z,7.50
2023-06-02T01:48:57.742Z,7.40
2023-06-02T01:51:24.530Z,7.50
2023-06-02T01:53:51.525Z,7.40
2023-06-02T01:56:18.282Z,7.40
2023-06-02T01:58:47.785Z,7.30
2023-06-02T02:01:14.722Z,7.30
2023-06-02T02:03:41.625Z,7.30
2023-06-02T02:06:11.616Z,7.30
2023-06-02T02:08:38.474Z,7.20
2023-06-02T02:11:05.372Z,7.20
2023-06-02T02:13:34.345Z,7.20
2023-06-02T02:16:04.551Z,7.20
2023-06-02T02:18:31.697Z,8.30
2023-06-02T02:20:58.664Z,7.20
2023-06-02T02:23:25.713Z,7.10
2023-06-02T02:25:52.608Z,7.10
2023-06-02T02:28:19.407Z,7.10
2023-06-02T02:30:46.259Z,8.70
2023-06-02T02:33:13.808Z,7.10
2023-06-02T02:35:41.448Z,7.10
2023-06-02T02:38:08.434Z,8.40
2023-06-02T02:40:35.286Z,7.10
2023-06-02T02:43:03.169Z,7.10
2023-06-02T02:45:30.132Z,7.10
2023-06-02T02:47:58.296Z,7.10
2023-06-02T02:50:25.126Z,7.10
2023-06-02T02:52:52.195Z,7.10
2023-06-02T02:55:19.051Z,7.10
2023-06-02T02:57:46.115Z,7.00
2023-06-02T03:00:14.396Z,7.00
2023-06-02T03:02:41.717Z,7.10
2023-06-02T03:05:09.727Z,7.10
2023-06-02T03:07:36.633Z,7.10
2023-06-02T03:10:03.709Z,7.10
2023-06-02T03:12:30.493Z,7.20
2023-06-02T03:14:58.454Z,7.20
2023-06-02T03:17:25.564Z,7.30
2023-06-02T03:19:52.500Z,8.80
2023-06-02T03:22:19.355Z,7.30
2023-06-02T03:24:46.233Z,7.30
2023-06-02T03:27:14.690Z,8.90
2023-06-02T03:29:41.938Z,7.40
2023-06-02T03:32:12.710Z,8.90
2023-06-02T03:34:40.985Z,7.60
2023-06-02T03:37:08.421Z,7.70
2023-06-02T03:39:35.161Z,7.70
2023-06-02T03:42:01.953Z,7.80
2023-06-02T03:44:28.921Z,7.80
2023-06-02T03:46:56.016Z,7.90
2023-06-02T03:49:28.149Z,8.00
2023-06-02T03:51:56.296Z,8.00
2023-06-02T03:54:26.380Z,8.10
2023-06-02T03:56:53.223Z,8.10
2023-06-02T03:59:20.231Z,9.80
2023-06-02T04:01:47.015Z,10.00
2023-06-02T04:04:14.055Z,8.30
2023-06-02T04:06:44.066Z,8.40
2023-06-02T04:09:14.467Z,8.40
2023-06-02T04:11:42.017Z,8.50
2023-06-02T04:14:09.134Z,10.10
2023-06-02T04:16:36.060Z,9.70
2023-06-02T04:19:07.234Z,8.60
2023-06-02T04:21:34.288Z,8.70
2023-06-02T04:24:04.072Z,8.70
2023-06-02T04:26:31.638Z,8.70
2023-06-02T04:28:58.423Z,8.70
2023-06-02T04:31:46.675Z,8.80
2023-06-02T04:34:17.418Z,8.80
2023-06-02T04:36:47.248Z,8.90
2023-06-02T04:39:14.182Z,9.00
2023-06-02T04:41:45.257Z,9.10
2023-06-02T04:44:12.692Z,9.20
2023-06-02T04:46:39.827Z,9.20
2023-06-02T04:49:10.681Z,9.30
2023-06-02T04:51:40.920Z,9.30
2023-06-02T04:54:07.862Z,9.30
2023-06-02T04:56:36.731Z,9.40
2023-06-02T04:59:05.066Z,9.40
2023-06-02T05:01:32.064Z,9.50
2023-06-02T05:03:59.188Z,9.50
2023-06-02T05:06:26.376Z,9.70
2023-06-02T05:08:53.324Z,9.70
2023-06-02T05:11:27.208Z,9.80
2023-06-02T05:13:56.552Z,9.90
2023-06-02T05:16:24.989Z,10.00
2023-06-02T05:18:52.458Z,10.10
2023-06-02T05:21:19.396Z,10.20
2023-06-02T05:23:46.513Z,10.30
2023-06-02T05:26:14.042Z,10.30
2023-06-02T05:28:41.817Z,10.40
2023-06-02T05:31:10.425Z,10.50
2023-06-02T05:33:37.903Z,10.50
2023-06-02T05:36:05.392Z,10.60
2023-06-02T05:38:32.607Z,10.70
2023-06-02T05:40:59.555Z,10.80
2023-06-02T05:43:26.770Z,10.90
2023-06-02T05:45:53.897Z,11.00
2023-06-02T05:48:21.040Z,11.10
2023-06-02T05:50:48.187Z,11.10
2023-06-02T05:53:18.074Z,11.10
2023-06-02T05:55:45.292Z,11.20
2023-06-02T05:58:12.254Z,11.30
2023-06-02T06:00:43.514Z,11.40
2023-06-02T06:03:10.939Z,11.50
2023-06-02T06:05:37.986Z,11.50
2023-06-02T06:08:05.037Z,11.60
2023-06-02T06:10:32.225Z,11.70
2023-06-02T06:13:00.188Z,11.80
2023-06-02T06:15:30.893Z,11.90
2023-06-02T06:17:57.966Z,12.00
2023-06-02T06:20:24.880Z,12.10
2023-06-02T06:22:52.861Z,12.10
2023-06-02T06:25:19.967Z,12.20
2023-06-02T06:27:49.759Z,12.20
2023-06-02T06:30:16.664Z,12.20
2023-06-02T06:32:43.931Z,12.30
2023-06-02T06:35:10.977Z,12.40
2023-06-02T06:37:37.965Z,12.50
2023-06-02T06:40:05.292Z,12.60
2023-06-02T06:42:32.478Z,12.60
2023-06-02T06:44:59.437Z,12.70
2023-06-02T06:47:26.612Z,12.70
2023-06-02T06:49:57.441Z,12.80
2023-06-02T06:52:24.453Z,12.80
2023-06-02T06:54:51.500Z,12.80
2023-06-02T06:57:19.651Z,12.80
2023-06-02T06:59:49.700Z,12.90
2023-06-02T07:02:17.082Z,13.00
2023-06-02T07:04:44.576Z,13.00
2023-06-02T07:07:14.084Z,13.10
2023-06-02T07:09:42.458Z,13.20
2023-06-02T07:12:09.678Z,13.30
2023-06-02T07:14:37.663Z,13.40
2023-06-02T07:17:04.997Z,13.40
2023-06-02T07:19:36.081Z,13.50
2023-06-02T07:22:07.282Z,13.50
2023-06-02T07:24:38.120Z,13.60
2023-06-02T07:27:05.225Z,13.70
2023-06-02T07:29:33.195Z,13.80
2023-06-02T07:32:03.073Z,13.80
2023-06-02T07:34:30.933Z,13.90
2023-06-02T07:37:03.647Z,13.90
2023-06-02T07:39:31.350Z,14.00
2023-06-02T07:41:58.415Z,14.00
2023-06-02T07:44:29.464Z,14.00
2023-06-02T07:46:57.337Z,14.00
2023-06-02T07:49:27.635Z,14.00
2023-06-02T07:51:54.690Z,14.20
2023-06-02T07:54:21.834Z,14.30
2023-06-02T07:56:52.086Z,14.40
2023-06-02T07:59:20.019Z,14.50
2023-06-02T08:01:47.466Z,14.50
2023-06-02T08:04:14.616Z,14.60
2023-06-02T08:06:43.260Z,14.70
2023-06-02T08:09:10.880Z,14.80
2023-06-02T08:11:37.962Z,14.90
2023-06-02T08:14:09.013Z,14.90
2023-06-02T08:16:45.148Z,15.00
2023-06-02T08:19:26.598Z,14.90
2023-06-02T08:21:54.854Z,15.40
2023-06-02T08:24:26.243Z,15.00
2023-06-02T08:26:56.860Z,15.00
2023-06-02T08:29:28.269Z,15.10
2023-06-02T08:31:58.480Z,15.10
2023-06-02T08:34:25.607Z,15.10
2023-06-02T08:37:02.159Z,15.20
2023-06-02T08:39:30.690Z,15.30
2023-06-02T08:41:57.990Z,15.30
2023-06-02T08:44:26.274Z,15.50
2023-06-02T08:46:57.194Z,15.60
2023-06-02T08:49:26.859Z,15.60
2023-06-02T08:52:02.218Z,15.70
2023-06-02T08:54:33.805Z,15.70
2023-06-02T08:57:06.324Z,15.60
2023-06-02T08:59:37.902Z,15.60
2023-06-02T09:02:05.861Z,15.60
2023-06-02T09:04:36.316Z,15.60
2023-06-02T09:07:16.816Z,15.60
2023-06-02T09:09:49.954Z,15.70
2023-06-02T09:12:19.087Z,15.80
2023-06-02T09:14:48.223Z,15.80
2023-06-02T09:17:29.845Z,15.90
2023-06-02T09:19:59.505Z,15.80
2023-06-02T09:22:26.832Z,16.00
2023-06-02T09:24:55.285Z,15.90
2023-06-02T09:27:22.558Z,16.60
2023-06-02T09:29:50.765Z,15.90
2023-06-02T09:32:20.051Z,16.00
2023-06-02T09:34:47.227Z,15.90
2023-06-02T09:37:20.492Z,15.90
2023-06-02T09:39:53.489Z,15.90
2023-06-02T09:42:23.011Z,16.00
2023-06-02T09:45:04.043Z,15.90
2023-06-02T09:47:38.305Z,15.90
2023-06-02T09:50:06.500Z,16.00
2023-06-02T09:52:35.347Z,16.00
2023-06-02T09:55:03.044Z,16.00
2023-06-02T09:57:31.988Z,16.10
2023-06-02T10:00:04.774Z,16.20
2023-06-02T10:02:31.761Z,16.20
2023-06-02T10:05:00.670Z,16.30
2023-06-02T10:08:04.183Z,16.50
2023-06-02T10:10:39.876Z,16.60
2023-06-02T10:13:33.363Z,16.60
2023-06-02T10:16:37.623Z,16.60
2023-06-02T10:19:13.886Z,16.70
2023-06-02T10:22:18.565Z,16.80
2023-06-02T10:25:06.286Z,17.00
2023-06-02T10:27:37.132Z,16.90
2023-06-02T10:30:04.923Z,16.70
2023-06-02T10:32:52.455Z,16.50
2023-06-02T10:35:20.353Z,16.50
2023-06-02T10:37:49.655Z,16.70
2023-06-02T10:40:16.957Z,16.90
2023-06-02T10:43:15.156Z,17.00
2023-06-02T10:45:46.473Z,17.10
2023-06-02T10:48:43.193Z,17.20
2023-06-02T10:51:11.921Z,17.20
2023-06-02T10:54:03.350Z,17.30
2023-06-02T10:56:36.721Z,17.40
2023-06-02T10:59:04.488Z,17.50
2023-06-02T11:01:52.492Z,17.60
2023-06-02T11:04:26.971Z,17.40
2023-06-02T11:07:27.350Z,17.40
2023-06-02T11:09:59.477Z,17.50
2023-06-02T11:12:51.319Z,17.60
2023-06-02T11:15:21.848Z,17.80
2023-06-02T11:17:49.669Z,19.30
2023-06-02T11:20:18.794Z,18.00
2023-06-02T11:22:48.208Z,17.80
2023-06-02T11:25:19.838Z,17.70
2023-06-02T11:27:48.857Z,17.70
2023-06-02T11:30:20.273Z,17.90
2023-06-02T11:32:50.430Z,18.00
2023-06-02T11:35:21.508Z,18.20
2023-06-02T11:38:06.004Z,18.20
2023-06-02T11:40:35.225Z,18.30
2023-06-02T11:43:02.362Z,18.50
2023-06-02T11:45:30.237Z,18.50
2023-06-02T11:48:06.727Z,18.60
2023-06-02T11:50:34.104Z,18.60
2023-06-02T11:53:01.450Z,18.50
2023-06-02T11:55:33.575Z,18.60
2023-06-02T11:58:21.032Z,18.70
2023-06-02T12:00:48.765Z,18.90
2023-06-02T12:03:15.972Z,19.00
2023-06-02T12:05:45.484Z,19.00
2023-06-02T12:08:16.667Z,19.20
2023-06-02T12:10:46.755Z,19.30
2023-06-02T12:13:31.733Z,19.10
2023-06-02T12:16:19.551Z,19.20
2023-06-02T12:18:50.656Z,19.50
2023-06-02T12:21:27.878Z,19.70
2023-06-02T12:24:00.710Z,19.90
2023-06-02T12:26:47.208Z,20.10
2023-06-02T12:29:15.195Z,20.30
2023-06-02T12:31:43.241Z,20.20
2023-06-02T12:34:12.244Z,20.00
2023-06-02T12:36:43.812Z,20.00
2023-06-02T12:39:14.437Z,19.70
2023-06-02T12:41:46.357Z,19.60
2023-06-02T12:44:17.973Z,19.60
2023-06-02T12:46:45.375Z,19.50
2023-06-02T12:49:17.455Z,19.40
2023-06-02T12:51:48.408Z,19.50
2023-06-02T12:54:15.736Z,19.70
2023-06-02T12:56:48.876Z,20.10
2023-06-02T12:59:19.292Z,20.20
2023-06-02T13:01:51.232Z,20.40
2023-06-02T13:04:22.561Z,20.60
2023-06-02T13:06:52.500Z,20.90
2023-06-02T13:09:19.344Z,21.10
2023-06-02T13:11:51.410Z,21.20
2023-06-02T13:14:24.558Z,21.20
2023-06-02T13:16:58.706Z,21.50
2023-06-02T13:19:29.812Z,21.60
2023-06-02T13:21:57.113Z,21.60
2023-06-02T13:24:24.329Z,21.30
2023-06-02T13:26:51.717Z,21.00
2023-06-02T13:29:18.568Z,20.70
2023-06-02T13:31:45.533Z,20.50
2023-06-02T13:34:12.818Z,20.40
2023-06-02T13:36:40.741Z,20.70
2023-06-02T13:39:10.200Z,20.70
2023-06-02T13:41:41.294Z,20.70
2023-06-02T13:44:22.366Z,20.80
2023-06-02T13:46:56.268Z,21.00
2023-06-02T13:49:27.614Z,20.90
2023-06-02T13:51:58.223Z,20.60
2023-06-02T13:54:25.111Z,20.30
2023-06-02T13:56:55.982Z,20.00
2023-06-02T13:59:22.901Z,20.00
2023-06-02T14:01:54.545Z,20.10
2023-06-02T14:04:23.202Z,20.00
2023-06-02T14:06:50.936Z,19.80
2023-06-02T14:09:23.277Z,19.80
2023-06-02T14:11:51.133Z,19.80
2023-06-02T14:14:18.195Z,19.70
2023-06-02T14:16:49.932Z,19.50
2023-06-02T14:19:22.932Z,19.70
2023-06-02T14:21:49.864Z,19.90
2023-06-02T14:24:24.007Z,20.00
2023-06-02T14:26:57.760Z,20.10
2023-06-02T14:29:31.903Z,20.30
2023-06-02T14:32:03.479Z,20.10
2023-06-02T14:34:37.554Z,20.00
2023-06-02T14:37:09.431Z,19.40
2023-06-02T14:39:46.066Z,19.30
2023-06-02T14:42:13.155Z,19.20
2023-06-02T14:44:41.214Z,19.10
2023-06-02T14:47:11.699Z,19.20
2023-06-02T14:49:39.694Z,19.20
2023-06-02T14:52:09.293Z,18.90
2023-06-02T14:54:37.233Z,18.60
2023-06-02T14:57:08.146Z,18.50
2023-06-02T14:59:39.195Z,18.60
2023-06-02T15:02:06.640Z,18.80
2023-06-02T15:04:34.647Z,18.90
2023-06-02T15:07:02.455Z,19.00
2023-06-02T15:09:33.307Z,19.10
2023-06-02T15:12:00.162Z,18.90
2023-06-02T15:14:30.309Z,18.80
2023-06-02T15:16:57.221Z,18.70
2023-06-02T15:19:28.756Z,18.60
2023-06-02T15:22:02.149Z,18.70
2023-06-02T15:24:30.441Z,18.70
2023-06-02T15:26:58.262Z,18.70
2023-06-02T15:29:25.106Z,18.60
2023-06-02T15:31:53.441Z,18.30
2023-06-02T15:34:25.892Z,18.10
2023-06-02T15:36:53.868Z,18.00
2023-06-02T15:39:26.976Z,18.00
2023-06-02T15:41:58.488Z,18.10
2023-06-02T15:44:33.354Z,18.10
2023-06-02T15:47:00.730Z,18.20
2023-06-02T15:49:32.361Z,18.40
2023-06-02T15:52:03.520Z,18.50
2023-06-02T15:54:35.507Z,18.50
2023-06-02T15:57:09.280Z,18.60
2023-06-02T15:59:46.131Z,18.50
2023-06-02T16:02:16.469Z,18.50
2023-06-02T16:04:47.133Z,18.50
2023-06-02T16:07:14.048Z,18.30
2023-06-02T16:09:46.214Z,18.40
2023-06-02T16:12:15.651Z,18.50
2023-06-02T16:14:42.512Z,18.60
2023-06-02T16:17:13.756Z,18.60
2023-06-02T16:19:47.044Z,18.60
2023-06-02T16:22:20.418Z,18.60
2023-06-02T16:24:51.133Z,18.60
2023-06-02T16:27:18.091Z,18.50
2023-06-02T16:29:51.742Z,18.40
2023-06-02T16:32:22.694Z,18.50
2023-06-02T16:34:49.705Z,18.70
2023-06-02T16:37:21.235Z,18.70
2023-06-02T16:39:48.179Z,19.00
2023-06-02T16:42:18.361Z,19.10
2023-06-02T16:44:54.322Z,19.10
2023-06-02T16:47:28.574Z,19.00
2023-06-02T16:50:02.124Z,19.10
2023-06-02T16:52:30.118Z,19.10
2023-06-02T16:55:04.704Z,19.00
2023-06-02T16:57:35.467Z,19.00
2023-06-02T17:00:09.184Z,19.00
2023-06-02T17:02:39.471Z,18.90
2023-06-02T17:05:10.420Z,19.00
2023-06-02T17:07:41.492Z,19.20
2023-06-02T17:10:14.865Z,19.30
2023-06-02T17:12:41.843Z,19.50
2023-06-02T17:15:12.014Z,20.10
2023-06-02T17:17:39.289Z,20.80
2023-06-02T17:20:13.836Z,21.70
2023-06-02T17:22:40.990Z,22.80
2023-06-02T17:25:08.401Z,23.00
2023-06-02T17:27:37.023Z,23.80
2023-06-02T17:30:07.708Z,24.40
2023-06-02T17:32:34.764Z,25.10
2023-06-02T17:35:02.039Z,25.40
2023-06-02T17:37:34.035Z,25.80
2023-06-02T17:40:04.466Z,26.20
2023-06-02T17:42:32.619Z,25.80
2023-06-02T17:45:00.319Z,26.50
2023-06-02T17:47:27.360Z,26.80
2023-06-02T17:49:57.587Z,26.90
2023-06-02T17:52:25.307Z,26.90
2023-06-02T17:54:52.948Z,27.10
2023-06-02T17:57:21.151Z,27.20
2023-06-02T17:59:51.392Z,27.30
2023-06-02T18:02:19.031Z,27.50
2023-06-02T18:04:53.411Z,28.00
2023-06-02T18:07:23.370Z,28.30
2023-06-02T18:09:54.208Z,28.30
2023-06-02T18:12:21.305Z,28.00
2023-06-02T18:14:48.425Z,28.10
2023-06-02T18:34:29.158Z,29.20
2023-06-02T18:36:56.043Z,29.00
2023-06-02T18:39:23.633Z,27.50
2023-06-02T18:41:50.807Z,25.80
2023-06-02T18:44:18.005Z,24.40
2023-06-02T18:46:45.214Z,23.30
2023-06-02T18:49:12.278Z,22.40
2023-06-02T18:51:39.488Z,21.90
2023-06-02T18:54:09.294Z,21.50
2023-06-02T18:56:36.869Z,20.80
2023-06-02T18:59:03.735Z,20.60
2023-06-02T19:01:31.725Z,20.20
2023-06-02T19:03:59.296Z,19.80
2023-06-02T19:06:26.478Z,19.50
2023-06-02T19:08:53.429Z,19.30
2023-06-02T19:11:20.599Z,19.10
2023-06-02T19:13:49.214Z,18.80
2023-06-02T19:16:17.193Z,18.50
2023-06-02T19:18:45.794Z,18.20
2023-06-02T19:21:15.900Z,18.00
2023-06-02T19:23:43.166Z,17.70
2023-06-02T19:26:10.829Z,17.50
2023-06-02T19:28:37.966Z,17.30
2023-06-02T19:31:04.964Z,17.20
2023-06-02T19:33:31.984Z,17.10
2023-06-02T19:35:59.135Z,17.00
2023-06-02T19:38:26.192Z,16.80
2023-06-02T19:40:55.958Z,16.70
2023-06-02T19:43:22.950Z,16.60
2023-06-02T19:45:50.894Z,16.50
2023-06-02T19:48:18.824Z,16.30
2023-06-02T19:50:48.259Z,16.20
2023-06-02T19:53:15.593Z,16.00
2023-06-02T19:55:42.473Z,15.80
2023-06-02T19:58:09.510Z,15.70
2023-06-02T20:00:39.757Z,15.50
2023-06-02T20:03:07.243Z,15.30
2023-06-02T20:05:35.802Z,15.20
2023-06-02T20:08:03.439Z,15.10
2023-06-02T20:10:30.605Z,14.90
2023-06-02T20:12:57.721Z,14.80
2023-06-02T20:15:24.711Z,14.60
2023-06-02T20:17:51.863Z,14.50
2023-06-02T20:20:19.046Z,14.30
2023-06-02T20:22:47.035Z,14.20
2023-06-02T20:25:13.966Z,14.00
2023-06-02T20:27:41.239Z,13.80
2023-06-02T20:30:09.123Z,13.70
2023-06-02T20:32:37.200Z,13.60
2023-06-02T20:35:05.975Z,13.50
2023-06-02T20:37:38.537Z,13.40
2023-06-02T20:40:08.783Z,13.30
2023-06-02T20:42:36.075Z,13.10
2023-06-02T20:45:03.681Z,13.00
2023-06-02T20:47:31.124Z,12.90
2023-06-02T20:49:59.323Z,12.80
2023-06-02T20:52:26.227Z,12.80
2023-06-02T20:54:53.061Z,12.70
2023-06-02T20:57:20.153Z,12.60
2023-06-02T20:59:47.248Z,12.60
2023-06-02T21:02:14.424Z,12.50
2023-06-02T21:04:43.678Z,12.40
2023-06-02T21:07:10.731Z,12.30
2023-06-02T21:09:37.866Z,12.20
2023-06-02T21:12:05.231Z,12.10
2023-06-02T21:14:33.226Z,12.10
2023-06-02T21:17:00.641Z,11.90
2023-06-02T21:19:27.733Z,11.90
2023-06-02T21:21:54.780Z,11.80
2023-06-02T21:24:22.240Z,11.70
2023-06-02T21:26:50.549Z,11.60
2023-06-02T21:29:17.644Z,11.50
2023-06-02T21:31:44.805Z,11.40
2023-06-02T21:34:11.956Z,11.40
2023-06-02T21:36:38.903Z,11.30
2023-06-02T21:39:08.906Z,11.20
2023-06-02T21:41:38.352Z,11.20
2023-06-02T21:44:05.427Z,11.10
2023-06-02T21:46:32.380Z,11.00
2023-06-02T21:48:59.497Z,11.00
2023-06-02T21:51:28.025Z,10.90
2023-06-02T21:53:56.693Z,10.80
2023-06-02T21:56:26.491Z,10.80
2023-06-02T21:58:57.572Z,10.70
2023-06-02T22:01:24.730Z,10.60
2023-06-02T22:03:51.992Z,10.50
2023-06-02T22:06:19.089Z,10.40
2023-06-02T22:08:46.402Z,10.40
2023-06-02T22:11:13.569Z,10.30
2023-06-02T22:13:40.519Z,10.20
2023-06-02T22:16:08.076Z,10.10
2023-06-02T22:18:35.044Z,10.10
2023-06-02T22:21:02.211Z,10.00
2023-06-02T22:23:29.903Z,10.00
2023-06-02T22:25:56.820Z,10.00
2023-06-02T22:28:23.896Z,9.80
2023-06-02T22:30:51.166Z,9.80
2023-06-02T22:33:18.208Z,9.70
2023-06-02T22:35:45.423Z,9.70
2023-06-02T22:38:12.359Z,9.60
2023-06-02T22:40:39.630Z,9.60
2023-06-02T22:43:06.787Z,9.50
2023-06-02T22:45:33.814Z,9.40
2023-06-02T22:48:00.904Z,9.40
2023-06-02T22:50:27.913Z,9.30
2023-06-02T22:52:54.861Z,9.30
2023-06-02T22:55:22.664Z,9.30
2023-06-02T22:57:49.832Z,9.30
2023-06-02T23:00:16.953Z,9.20
2023-06-02T23:02:44.085Z,9.10
2023-06-02T23:05:11.409Z,9.00
2023-06-02T23:07:39.816Z,8.90
2023-06-02T23:10:07.562Z,8.80
2023-06-02T23:12:34.587Z,8.80
2023-06-02T23:15:01.451Z,8.80
2023-06-02T23:17:28.718Z,8.70
2023-06-02T23:19:55.641Z,8.70
2023-06-02T23:22:22.908Z,8.70
2023-06-02T23:24:52.321Z,8.60
2023-06-02T23:27:19.838Z,8.60
2023-06-02T23:29:46.972Z,8.50
2023-06-02T23:32:14.467Z,8.50
2023-06-02T23:34:41.862Z,8.40
2023-06-02T23:37:08.987Z,8.40
2023-06-02T23:39:36.439Z,8.40
2023-06-02T23:42:03.892Z,8.30
2023-06-02T23:44:31.119Z,8.30
2023-06-02T23:46:58.317Z,8.30
2023-06-02T23:49:25.404Z,8.30
2023-06-02T23:51:53.511Z,8.20
2023-06-02T23:54:20.625Z,8.20
2023-06-02T23:56:47.937Z,8.10
2023-06-02T23:59:15.058Z,8.00
